createdAt,value
2018-05-05T00:01:32.807Z,10.10
2018-05-05T00:04:00.294Z,10.20
2018-05-05T00:06:27.771Z,10.20
2018-05-05T00:08:55.242Z,10.20
2018-05-05T00:11:22.815Z,10.20
2018-05-05T00:13:50.312Z,10.20
2018-05-05T00:16:17.786Z,10.10
2018-05-05T00:18:45.343Z,10.10
2018-05-05T00:21:12.799Z,10.10
2018-05-05T00:23:40.270Z,10.10
2018-05-05T00:26:07.754Z,10.10
2018-05-05T00:28:35.215Z,10.00
2018-05-05T00:31:02.713Z,10.00
2018-05-05T00:33:30.952Z,10.00
2018-05-05T00:35:58.467Z,10.00
2018-05-05T00:38:25.940Z,10.00
2018-05-05T00:40:53.409Z,10.00
2018-05-05T00:43:20.884Z,9.90
2018-05-05T00:45:48.332Z,9.90
2018-05-05T00:48:15.796Z,9.80
2018-05-05T00:50:43.275Z,9.80
2018-05-05T00:53:11.503Z,9.70
2018-05-05T00:55:38.980Z,9.60
2018-05-05T00:58:06.473Z,9.70
2018-05-05T01:00:34.712Z,9.60
2018-05-05T01:03:02.211Z,9.60
2018-05-05T01:05:29.664Z,9.50
2018-05-05T01:07:57.155Z,9.50
2018-05-05T01:10:24.631Z,9.50
2018-05-05T01:12:52.093Z,9.50
2018-05-05T01:15:19.564Z,9.40
2018-05-05T01:17:47.036Z,9.40
2018-05-05T01:20:14.535Z,9.30
2018-05-05T01:22:41.981Z,9.30
2018-05-05T01:25:09.465Z,9.30
2018-05-05T01:27:36.932Z,9.20
2018-05-05T01:30:04.399Z,9.00
2018-05-05T01:32:31.884Z,9.00
2018-05-05T01:34:59.367Z,8.90
2018-05-05T01:37:26.836Z,8.80
2018-05-05T01:39:54.339Z,8.80
2018-05-05T01:42:21.812Z,8.80
2018-05-05T01:44:50.058Z,8.70
2018-05-05T01:47:17.523Z,8.70
2018-05-05T01:49:44.991Z,8.70
2018-05-05T01:52:12.471Z,8.70
2018-05-05T01:54:40.704Z,8.60
2018-05-05T01:57:08.199Z,8.60
2018-05-05T01:59:36.410Z,8.50
2018-05-05T02:02:03.898Z,8.50
2018-05-05T02:04:31.358Z,8.50
2018-05-05T02:06:58.839Z,8.40
2018-05-05T02:09:26.358Z,8.50
2018-05-05T02:11:53.826Z,8.50
2018-05-05T02:14:21.268Z,8.60
2018-05-05T02:16:48.748Z,8.50
2018-05-05T02:19:16.213Z,8.40
2018-05-05T02:21:43.694Z,8.40
2018-05-05T02:24:11.927Z,8.50
2018-05-05T02:26:39.382Z,8.50
2018-05-05T02:29:06.871Z,8.40
2018-05-05T02:31:35.108Z,8.40
2018-05-05T02:34:02.590Z,8.40
2018-05-05T02:36:30.029Z,8.40
2018-05-05T02:38:57.492Z,8.40
2018-05-05T02:41:25.001Z,8.40
2018-05-05T02:43:52.469Z,8.50
2018-05-05T02:46:19.951Z,8.50
2018-05-05T02:48:47.798Z,8.50
2018-05-05T02:51:15.254Z,8.50
2018-05-05T02:53:42.754Z,8.40
2018-05-05T02:56:10.212Z,8.40
2018-05-05T02:58:37.689Z,8.30
2018-05-05T03:01:05.929Z,8.20
2018-05-05T03:03:33.399Z,8.10
2018-05-05T03:06:00.912Z,8.10
2018-05-05T03:08:28.371Z,8.10
2018-05-05T03:10:55.855Z,8.10
2018-05-05T03:13:23.319Z,8.00
2018-05-05T03:15:50.777Z,8.10
2018-05-05T03:18:18.280Z,8.00
2018-05-05T03:20:46.525Z,8.00
2018-05-05T03:23:14.007Z,7.90
2018-05-05T03:25:41.471Z,7.90
2018-05-05T03:28:08.929Z,8.00
2018-05-05T03:30:36.423Z,8.00
2018-05-05T03:33:03.884Z,8.00
2018-05-05T03:35:32.221Z,7.90
2018-05-05T03:37:59.696Z,7.80
2018-05-05T03:40:27.187Z,7.90
2018-05-05T03:42:54.657Z,7.70
2018-05-05T03:45:22.146Z,7.70
2018-05-05T03:47:49.650Z,7.70
2018-05-05T03:50:17.116Z,7.60
2018-05-05T03:52:44.573Z,7.60
2018-05-05T03:55:12.073Z,7.60
2018-05-05T03:57:39.545Z,7.60
2018-05-05T04:00:18.910Z,7.70
2018-05-05T04:02:58.303Z,7.70
2018-05-05T04:05:41.443Z,7.70
2018-05-05T04:08:08.918Z,7.70
2018-05-05T04:10:36.372Z,7.60
2018-05-05T04:13:03.827Z,7.60
2018-05-05T04:15:31.302Z,7.60
2018-05-05T04:17:58.788Z,7.50
2018-05-05T04:20:26.259Z,7.40
2018-05-05T04:22:54.482Z,7.40
2018-05-05T04:25:21.964Z,7.30
2018-05-05T04:27:49.435Z,7.50
2018-05-05T04:30:16.939Z,7.50
2018-05-05T04:32:44.399Z,7.60
2018-05-05T04:35:11.889Z,7.70
2018-05-05T04:37:39.383Z,7.80
2018-05-05T04:40:07.612Z,7.90
2018-05-05T04:42:35.104Z,7.90
2018-05-05T04:45:02.577Z,7.90
2018-05-05T04:47:30.038Z,7.90
2018-05-05T04:49:57.524Z,8.00
2018-05-05T04:52:24.973Z,8.00
2018-05-05T04:54:52.466Z,8.10
2018-05-05T04:57:20.108Z,8.20
2018-05-05T04:59:47.504Z,8.40
2018-05-05T05:02:15.032Z,8.40
2018-05-05T05:04:42.531Z,8.50
2018-05-05T05:07:10.762Z,8.70
2018-05-05T05:09:38.241Z,8.70
2018-05-05T05:12:06.501Z,8.80
2018-05-05T05:14:34.030Z,8.70
2018-05-05T05:17:01.488Z,8.80
2018-05-05T05:19:28.955Z,8.80
2018-05-05T05:21:56.423Z,8.80
2018-05-05T05:24:23.884Z,9.00
2018-05-05T05:26:51.407Z,9.30
2018-05-05T05:29:18.891Z,9.40
2018-05-05T05:31:46.390Z,9.70
2018-05-05T05:34:13.864Z,9.80
2018-05-05T05:36:41.810Z,10.00
2018-05-05T05:39:09.293Z,10.30
2018-05-05T05:41:38.387Z,10.50
2018-05-05T05:44:05.855Z,10.70
2018-05-05T05:46:33.432Z,10.60
2018-05-05T05:49:01.436Z,10.70
2018-05-05T05:51:28.950Z,11.00
2018-05-05T05:53:56.459Z,10.90
2018-05-05T05:56:23.965Z,11.20
2018-05-05T05:58:51.420Z,11.50
2018-05-05T06:01:18.895Z,11.70
2018-05-05T06:03:46.366Z,11.80
2018-05-05T06:06:13.826Z,11.90
2018-05-05T06:08:41.384Z,12.20
2018-05-05T06:11:08.869Z,12.10
2018-05-05T06:13:36.355Z,12.20
2018-05-05T06:16:04.585Z,12.70
2018-05-05T06:18:32.075Z,12.70
2018-05-05T06:20:59.575Z,13.00
2018-05-05T06:23:27.043Z,13.40
2018-05-05T06:25:54.766Z,13.70
2018-05-05T06:28:22.266Z,13.90
2018-05-05T06:30:49.806Z,13.70
2018-05-05T06:33:17.228Z,14.10
2018-05-05T06:35:44.727Z,14.60
2018-05-05T06:38:12.189Z,15.00
2018-05-05T06:40:39.662Z,15.20
2018-05-05T06:43:07.170Z,15.60
2018-05-05T06:45:34.673Z,15.80
2018-05-05T06:48:02.191Z,16.10
2018-05-05T06:50:29.684Z,16.00
2018-05-05T06:52:57.179Z,15.80
2018-05-05T06:55:24.704Z,16.20
2018-05-05T06:57:52.975Z,16.20
2018-05-05T07:00:20.436Z,16.70
2018-05-05T07:02:47.929Z,16.60
2018-05-05T07:05:15.429Z,16.80
2018-05-05T07:07:42.911Z,16.50
2018-05-05T07:10:10.371Z,16.90
2018-05-05T07:12:37.881Z,17.20
2018-05-05T07:15:05.333Z,17.20
2018-05-05T07:17:32.823Z,16.70
2018-05-05T07:20:00.288Z,17.00
2018-05-05T07:22:27.800Z,17.30
2018-05-05T07:24:55.374Z,16.70
2018-05-05T07:27:22.774Z,16.20
2018-05-05T07:29:50.258Z,16.40
2018-05-05T07:32:17.729Z,17.20
2018-05-05T07:34:45.220Z,17.80
2018-05-05T07:37:12.684Z,18.20
2018-05-05T07:39:40.162Z,18.30
2018-05-05T07:42:07.703Z,17.60
2018-05-05T07:44:35.221Z,17.70
2018-05-05T07:47:02.706Z,17.50
2018-05-05T07:49:30.183Z,17.70
2018-05-05T07:51:57.661Z,17.60
2018-05-05T07:54:25.581Z,17.40
2018-05-05T07:56:53.075Z,17.90
2018-05-05T07:59:20.571Z,17.70
2018-05-05T08:01:48.038Z,17.60
2018-05-05T08:04:16.232Z,17.50
2018-05-05T08:06:43.728Z,17.40
2018-05-05T08:09:11.234Z,17.70
2018-05-05T08:11:39.576Z,17.60
2018-05-05T08:14:07.110Z,17.90
2018-05-05T08:16:34.604Z,18.20
2018-05-05T08:19:02.146Z,18.10
2018-05-05T08:21:29.631Z,18.10
2018-05-05T08:23:57.873Z,18.20
2018-05-05T08:26:25.346Z,18.20
2018-05-05T08:28:52.833Z,18.70
2018-05-05T08:31:21.066Z,18.20
2018-05-05T08:33:48.562Z,18.20
2018-05-05T08:36:16.036Z,18.30
2018-05-05T08:38:43.526Z,18.40
2018-05-05T08:41:11.011Z,18.40
2018-05-05T08:43:38.495Z,18.10
2018-05-05T08:46:05.953Z,18.10
2018-05-05T08:48:33.456Z,17.80
2018-05-05T08:51:00.943Z,18.10
2018-05-05T08:53:28.420Z,18.40
2018-05-05T08:55:56.675Z,18.50
2018-05-05T08:58:24.370Z,18.40
2018-05-05T09:00:51.854Z,18.30
2018-05-05T09:03:19.366Z,18.30
2018-05-05T09:05:47.610Z,18.30
2018-05-05T09:08:15.111Z,18.30
2018-05-05T09:10:42.621Z,18.50
2018-05-05T09:13:10.089Z,18.40
2018-05-05T09:15:37.557Z,18.50
2018-05-05T09:18:05.070Z,18.90
2018-05-05T09:20:32.561Z,19.00
2018-05-05T09:23:00.031Z,19.00
2018-05-05T09:25:27.541Z,19.20
2018-05-05T09:27:55.021Z,19.30
2018-05-05T09:30:23.369Z,19.10
2018-05-05T09:32:50.876Z,19.20
2018-05-05T09:35:18.370Z,19.40
2018-05-05T09:37:45.846Z,19.80
2018-05-05T09:40:13.342Z,19.60
2018-05-05T09:42:40.876Z,19.50
2018-05-05T09:45:08.313Z,19.60
2018-05-05T09:47:35.816Z,19.40
2018-05-05T09:50:03.277Z,19.30
2018-05-05T09:52:30.744Z,19.70
2018-05-05T09:54:58.258Z,20.00
2018-05-05T09:57:25.745Z,19.90
2018-05-05T09:59:53.239Z,20.50
2018-05-05T10:02:20.747Z,20.40
2018-05-05T10:04:48.213Z,20.20
2018-05-05T10:07:15.687Z,20.20
2018-05-05T10:09:43.227Z,20.40
2018-05-05T10:12:10.706Z,20.20
2018-05-05T10:14:38.194Z,20.30
2018-05-05T10:17:05.696Z,20.40
2018-05-05T10:19:33.182Z,20.70
2018-05-05T10:22:00.638Z,21.10
2018-05-05T10:24:28.902Z,21.30
2018-05-05T10:26:56.393Z,21.30
2018-05-05T10:29:24.641Z,21.10
2018-05-05T10:31:52.222Z,21.10
2018-05-05T10:34:19.625Z,21.10
2018-05-05T10:36:47.144Z,21.10
2018-05-05T10:39:15.469Z,21.20
2018-05-05T10:41:42.957Z,21.20
2018-05-05T10:44:10.456Z,21.30
2018-05-05T10:46:38.702Z,21.20
2018-05-05T10:49:06.944Z,21.30
2018-05-05T10:51:34.431Z,21.30
2018-05-05T10:54:02.684Z,21.10
2018-05-05T10:56:30.170Z,21.10
2018-05-05T10:58:58.408Z,21.20
2018-05-05T11:01:26.009Z,21.20
2018-05-05T11:03:53.420Z,21.40
2018-05-05T11:06:20.895Z,21.20
2018-05-05T11:08:48.379Z,21.40
2018-05-05T11:11:15.853Z,21.60
2018-05-05T11:13:43.325Z,21.70
2018-05-05T11:16:10.801Z,21.60
2018-05-05T11:18:38.308Z,21.70
2018-05-05T11:21:06.560Z,22.40
2018-05-05T11:23:34.024Z,22.30
2018-05-05T11:26:01.553Z,22.20
2018-05-05T11:28:29.231Z,22.10
2018-05-05T11:30:56.738Z,22.30
2018-05-05T11:33:24.229Z,22.70
2018-05-05T11:35:51.712Z,23.20
2018-05-05T11:38:19.225Z,23.00
2018-05-05T11:40:46.723Z,23.10
2018-05-05T11:43:14.263Z,23.40
2018-05-05T11:45:41.844Z,23.40
2018-05-05T11:48:09.327Z,22.90
2018-05-05T11:50:37.655Z,22.20
2018-05-05T11:53:05.109Z,22.30
2018-05-05T11:55:32.626Z,22.30
2018-05-05T11:58:00.096Z,22.30
2018-05-05T12:00:27.591Z,22.20
2018-05-05T12:02:55.101Z,22.20
2018-05-05T12:05:22.574Z,22.20
2018-05-05T12:07:50.075Z,22.20
2018-05-05T12:10:17.549Z,22.00
2018-05-05T12:12:45.045Z,22.10
2018-05-05T12:15:12.543Z,22.30
2018-05-05T12:17:40.023Z,22.30
2018-05-05T12:20:07.509Z,22.50
2018-05-05T12:22:34.978Z,22.60
2018-05-05T12:25:02.446Z,23.00
2018-05-05T12:27:29.942Z,22.60
2018-05-05T12:29:58.265Z,22.90
2018-05-05T12:32:25.767Z,22.90
2018-05-05T12:34:53.267Z,23.50
2018-05-05T12:37:20.721Z,24.00
2018-05-05T12:39:48.244Z,24.30
2018-05-05T12:42:15.980Z,24.20
2018-05-05T12:44:43.916Z,23.80
2018-05-05T12:47:11.403Z,23.80
2018-05-05T12:49:38.874Z,24.70
2018-05-05T12:52:06.364Z,24.50
2018-05-05T12:54:34.635Z,24.30
2018-05-05T12:57:02.138Z,24.20
2018-05-05T12:59:29.627Z,24.40
2018-05-05T13:01:57.102Z,24.50
2018-05-05T13:04:24.615Z,24.80
2018-05-05T13:06:52.105Z,24.90
2018-05-05T13:09:19.592Z,25.30
2018-05-05T13:11:47.070Z,25.00
2018-05-05T13:14:14.556Z,25.40
2018-05-05T13:16:42.031Z,25.40
2018-05-05T13:19:09.515Z,24.90
2018-05-05T13:21:37.818Z,24.90
2018-05-05T13:24:05.295Z,24.80
2018-05-05T13:26:32.773Z,24.60
2018-05-05T13:29:00.256Z,24.70
2018-05-05T13:31:27.721Z,25.10
2018-05-05T13:33:55.975Z,25.60
2018-05-05T13:36:23.473Z,25.50
2018-05-05T13:38:51.778Z,26.30
2018-05-05T13:41:19.281Z,26.30
2018-05-05T13:43:46.759Z,26.80
2018-05-05T13:46:15.080Z,27.60
2018-05-05T13:48:42.498Z,27.50
2018-05-05T13:51:09.988Z,26.10
2018-05-05T13:53:37.486Z,26.50
2018-05-05T13:56:04.955Z,26.40
2018-05-05T13:58:33.230Z,26.40
2018-05-05T14:01:00.935Z,26.20
2018-05-05T14:03:28.399Z,26.20
2018-05-05T14:05:55.886Z,26.50
2018-05-05T14:08:23.360Z,26.70
2018-05-05T14:10:50.831Z,26.40
2018-05-05T14:13:18.416Z,25.70
2018-05-05T14:15:45.828Z,25.90
2018-05-05T14:18:13.312Z,25.70
2018-05-05T14:20:41.548Z,27.30
2018-05-05T14:23:09.096Z,27.30
2018-05-05T14:25:36.611Z,27.10
2018-05-05T14:28:04.094Z,27.10
2018-05-05T14:30:31.643Z,26.70
2018-05-05T14:32:59.133Z,26.40
2018-05-05T14:35:26.614Z,25.70
2018-05-05T14:37:54.120Z,25.70
2018-05-05T14:40:21.607Z,26.00
2018-05-05T14:42:49.102Z,25.90
2018-05-05T14:45:17.349Z,25.10
2018-05-05T14:47:45.358Z,25.10
2018-05-05T14:50:12.857Z,24.90
2018-05-05T14:52:40.332Z,25.20
2018-05-05T14:55:07.822Z,26.00
2018-05-05T14:57:36.077Z,25.70
2018-05-05T15:00:03.583Z,25.70
2018-05-05T15:02:31.861Z,25.50
2018-05-05T15:04:59.336Z,25.50
2018-05-05T15:07:26.819Z,25.30
2018-05-05T15:09:54.290Z,24.90
2018-05-05T15:12:22.538Z,25.80
2018-05-05T15:14:50.023Z,25.80
2018-05-05T15:17:17.502Z,26.20
2018-05-05T15:19:45.010Z,25.50
2018-05-05T15:22:12.497Z,25.50
2018-05-05T15:24:39.968Z,25.70
2018-05-05T15:27:07.486Z,25.50
2018-05-05T15:29:34.960Z,25.40
2018-05-05T15:32:02.479Z,26.20
2018-05-05T15:34:30.747Z,26.50
2018-05-05T15:36:58.234Z,26.50
2018-05-05T15:39:25.718Z,26.70
2018-05-05T15:41:53.171Z,26.20
2018-05-05T15:44:20.677Z,26.00
2018-05-05T15:46:48.192Z,25.80
2018-05-05T15:49:15.701Z,25.80
2018-05-05T15:51:43.192Z,25.60
2018-05-05T15:54:10.669Z,25.30
2018-05-05T15:56:38.188Z,25.60
2018-05-05T15:59:05.681Z,25.40
2018-05-05T16:01:33.166Z,25.50
2018-05-05T16:04:00.678Z,25.30
2018-05-05T16:06:28.168Z,25.10
2018-05-05T16:08:55.667Z,25.40
2018-05-05T16:11:23.207Z,25.50
2018-05-05T16:13:50.645Z,25.40
2018-05-05T16:16:18.135Z,25.20
2018-05-05T16:18:45.632Z,25.70
2018-05-05T16:21:13.126Z,25.60
2018-05-05T16:23:40.655Z,25.60
2018-05-05T16:26:08.107Z,26.30
2018-05-05T16:28:35.619Z,25.50
2018-05-05T16:31:03.112Z,25.10
2018-05-05T16:33:30.606Z,25.30
2018-05-05T16:35:58.086Z,24.50
2018-05-05T16:38:25.583Z,24.60
2018-05-05T16:40:53.092Z,24.60
2018-05-05T16:43:20.585Z,24.50
2018-05-05T16:45:48.073Z,24.40
2018-05-05T16:48:15.569Z,24.60
2018-05-05T16:50:43.034Z,24.60
2018-05-05T16:53:10.534Z,24.70
2018-05-05T16:55:37.995Z,24.40
2018-05-05T16:58:05.498Z,23.60
2018-05-05T17:00:32.950Z,23.20
2018-05-05T17:03:00.457Z,23.20
2018-05-05T17:05:27.940Z,23.20
2018-05-05T17:07:56.185Z,23.30
2018-05-05T17:10:23.675Z,23.30
2018-05-05T17:12:51.928Z,22.40
2018-05-05T17:15:19.408Z,22.40
2018-05-05T17:17:47.657Z,21.90
2018-05-05T17:20:15.141Z,21.90
2018-05-05T17:22:43.402Z,21.10
2018-05-05T17:25:10.915Z,21.00
2018-05-05T17:27:38.402Z,20.70
2018-05-05T17:30:05.886Z,20.50
2018-05-05T17:32:34.140Z,20.30
2018-05-05T17:35:01.663Z,20.30
2018-05-05T17:37:29.114Z,20.20
2018-05-05T17:39:56.599Z,20.00
2018-05-05T17:42:24.121Z,19.90
2018-05-05T17:44:51.650Z,19.90
2018-05-05T17:47:19.105Z,19.90
2018-05-05T17:49:46.600Z,19.80
2018-05-05T17:52:14.094Z,19.80
2018-05-05T17:54:41.674Z,19.70
2018-05-05T17:57:09.188Z,19.50
2018-05-05T17:59:36.631Z,19.40
2018-05-05T18:02:04.138Z,19.40
2018-05-05T18:04:31.670Z,19.40
2018-05-05T18:06:59.163Z,19.30
2018-05-05T18:09:26.657Z,19.20
2018-05-05T18:11:54.147Z,19.20
2018-05-05T18:14:21.618Z,19.10
2018-05-05T18:16:49.311Z,18.80
2018-05-05T18:19:23.830Z,18.70
2018-05-05T18:21:51.689Z,18.60
2018-05-05T18:24:19.160Z,18.60
2018-05-05T18:26:47.422Z,18.40
2018-05-05T18:29:15.732Z,18.40
2018-05-05T18:31:43.302Z,18.40
2018-05-05T18:34:10.779Z,18.20
2018-05-05T18:36:38.364Z,18.10
2018-05-05T18:39:06.976Z,18.00
2018-05-05T18:41:34.456Z,18.00
2018-05-05T18:44:02.020Z,17.90
2018-05-05T18:46:30.262Z,17.70
2018-05-05T18:48:58.526Z,17.40
2018-05-05T18:51:26.023Z,17.50
2018-05-05T18:53:53.513Z,17.40
2018-05-05T18:56:21.032Z,17.30
2018-05-05T18:58:48.516Z,17.20
2018-05-05T19:01:17.590Z,17.00
2018-05-05T19:03:45.064Z,17.00
2018-05-05T19:06:13.560Z,17.00
2018-05-05T19:08:41.037Z,17.00
2018-05-05T19:11:08.514Z,16.90
2018-05-05T19:13:36.042Z,16.90
2018-05-05T19:16:03.531Z,16.80
2018-05-05T19:18:31.791Z,16.80
2018-05-05T19:20:59.304Z,16.70
2018-05-05T19:23:26.817Z,16.60
2018-05-05T19:25:54.336Z,16.60
2018-05-05T19:28:21.833Z,16.60
2018-05-05T19:30:49.320Z,16.50
2018-05-05T19:33:16.822Z,16.40
2018-05-05T19:35:44.306Z,16.30
2018-05-05T19:38:11.790Z,16.30
2018-05-05T19:40:39.272Z,16.20
2018-05-05T19:43:06.761Z,16.10
2018-05-05T19:45:34.267Z,16.00
2018-05-05T19:48:01.758Z,16.00
2018-05-05T19:50:29.282Z,15.90
2018-05-05T19:52:56.775Z,15.80
2018-05-05T19:55:24.253Z,15.80
2018-05-05T19:57:51.753Z,15.70
2018-05-05T20:00:19.992Z,15.70
2018-05-05T20:02:50.836Z,15.70
2018-05-05T20:05:18.307Z,15.60
2018-05-05T20:07:46.668Z,15.60
2018-05-05T20:10:14.206Z,15.60
2018-05-05T20:12:41.693Z,15.60
2018-05-05T20:15:09.190Z,15.50
2018-05-05T20:17:36.774Z,15.40
2018-05-05T20:20:04.170Z,15.30
2018-05-05T20:22:32.426Z,15.40
2018-05-05T20:24:59.909Z,15.30
2018-05-05T20:27:28.209Z,15.30
2018-05-05T20:29:55.680Z,15.20
2018-05-05T20:32:23.145Z,15.10
2018-05-05T20:34:50.641Z,15.10
2018-05-05T20:37:18.116Z,15.00
2018-05-05T20:39:46.386Z,14.60
2018-05-05T20:42:14.633Z,14.50
2018-05-05T20:44:42.140Z,14.40
2018-05-05T20:47:09.635Z,14.30
2018-05-05T20:49:37.140Z,14.20
2018-05-05T20:52:05.395Z,14.00
2018-05-05T20:54:32.891Z,14.00
2018-05-05T20:57:00.757Z,14.00
2018-05-05T20:59:28.237Z,13.90
2018-05-05T21:01:55.724Z,13.80
2018-05-05T21:04:23.186Z,13.80
2018-05-05T21:06:50.725Z,13.70
2018-05-05T21:09:18.200Z,13.70
2018-05-05T21:11:45.731Z,13.60
2018-05-05T21:14:13.201Z,13.60
2018-05-05T21:16:40.682Z,13.50
2018-05-05T21:19:08.169Z,13.40
2018-05-05T21:21:35.669Z,13.30
2018-05-05T21:24:03.194Z,13.30
2018-05-05T21:26:30.690Z,13.30
2018-05-05T21:28:58.171Z,13.20
2018-05-05T21:31:25.700Z,13.10
2018-05-05T21:33:53.174Z,13.00
2018-05-05T21:36:20.661Z,13.00
2018-05-05T21:38:48.158Z,12.90
2018-05-05T21:41:15.751Z,12.90
2018-05-05T21:43:43.257Z,12.90
2018-05-05T21:46:10.724Z,12.90
2018-05-05T21:48:38.221Z,12.90
2018-05-05T21:51:05.686Z,12.80
2018-05-05T21:53:33.163Z,12.80
2018-05-05T21:56:01.508Z,12.70
2018-05-05T21:58:28.904Z,12.70
2018-05-05T22:00:57.146Z,12.60
2018-05-05T22:03:24.615Z,12.60
2018-05-05T22:05:52.087Z,12.50
2018-05-05T22:08:20.390Z,12.40
2018-05-05T22:10:47.809Z,12.40
2018-05-05T22:13:15.303Z,12.30
2018-05-05T22:15:42.761Z,12.30
2018-05-05T22:18:10.238Z,12.30
2018-05-05T22:20:37.741Z,12.20
2018-05-05T22:23:05.212Z,12.10
2018-05-05T22:25:32.719Z,12.10
2018-05-05T22:28:00.196Z,12.10
2018-05-05T22:30:27.674Z,12.10
2018-05-05T22:32:56.040Z,12.00
2018-05-05T22:35:23.528Z,11.90
2018-05-05T22:37:51.015Z,12.00
2018-05-05T22:40:18.501Z,11.90
2018-05-05T22:42:45.982Z,11.90
2018-05-05T22:45:13.488Z,11.80
2018-05-05T22:47:40.959Z,11.70
2018-05-05T22:50:08.449Z,11.70
2018-05-05T22:52:35.917Z,11.70
2018-05-05T22:55:03.394Z,11.60
2018-05-05T22:57:30.910Z,11.60
2018-05-05T22:59:58.401Z,11.50
2018-05-05T23:02:26.643Z,11.50
2018-05-05T23:04:56.109Z,11.50
2018-05-05T23:07:23.607Z,11.50
2018-05-05T23:09:51.107Z,11.50
2018-05-05T23:12:18.598Z,11.50
2018-05-05T23:14:46.081Z,11.50
2018-05-05T23:17:13.553Z,11.50
2018-05-05T23:19:41.030Z,11.40
2018-05-05T23:22:08.552Z,11.40
2018-05-05T23:24:36.030Z,11.30
2018-05-05T23:27:03.560Z,11.20
2018-05-05T23:29:31.038Z,11.20
2018-05-05T23:31:58.500Z,11.10
2018-05-05T23:34:26.019Z,11.90
2018-05-05T23:36:53.506Z,10.90
2018-05-05T23:39:21.000Z,11.00
2018-05-05T23:41:48.470Z,11.00
2018-05-05T23:44:16.008Z,11.00
2018-05-05T23:46:43.448Z,10.90
2018-05-05T23:49:10.925Z,10.90
2018-05-05T23:51:39.167Z,10.80
2018-05-05T23:54:07.413Z,10.80
2018-05-05T23:56:34.884Z,10.70
2018-05-05T23:59:02.364Z,10.80
